sensor_id;sensor_type;location;lat;lon;timestamp;P1;durP1;ratioP1;P2;durP2;ratioP2
81672;SDS011;71092;41.158;-8.680;2024-03-29T00:00:40;18.08;;;5.40;;
81672;SDS011;71092;41.158;-8.680;2024-03-29T00:03:09;20.00;;;6.05;;
81672;SDS011;71092;41.158;-8.680;2024-03-29T00:05:36;20.75;;;6.50;;
81672;SDS011;71092;41.158;-8.680;2024-03-29T00:08:05;18.48;;;5.50;;
81672;SDS011;71092;41.158;-8.680;2024-03-29T00:10:32;27.30;;;7.03;;
81672;SDS011;71092;41.158;-8.680;2024-03-29T00:12:59;23.00;;;5.57;;
81672;SDS011;71092;41.158;-8.680;2024-03-29T00:17:51;18.17;;;5.35;;
81672;SDS011;71092;41.158;-8.680;2024-03-29T00:20:17;20.80;;;5.97;;
81672;SDS011;71092;41.158;-8.680;2024-03-29T00:22:43;19.95;;;7.13;;
81672;SDS011;71092;41.158;-8.680;2024-03-29T00:27:35;20.10;;;5.50;;
81672;SDS011;71092;41.158;-8.680;2024-03-29T00:30:01;20.67;;;6.38;;
81672;SDS011;71092;41.158;-8.680;2024-03-29T00:32:27;18.17;;;6.15;;
81672;SDS011;71092;41.158;-8.680;2024-03-29T00:37:20;20.35;;;6.53;;
81672;SDS011;71092;41.158;-8.680;2024-03-29T00:39:46;22.90;;;6.00;;
81672;SDS011;71092;41.158;-8.680;2024-03-29T00:42:12;20.77;;;5.75;;
81672;SDS011;71092;41.158;-8.680;2024-03-29T00:44:41;18.98;;;5.88;;
81672;SDS011;71092;41.158;-8.680;2024-03-29T00:47:07;17.45;;;5.90;;
81672;SDS011;71092;41.158;-8.680;2024-03-29T00:49:33;23.48;;;6.05;;
81672;SDS011;71092;41.158;-8.680;2024-03-29T00:52:01;18.75;;;5.60;;
81672;SDS011;71092;41.158;-8.680;2024-03-29T00:54:28;23.55;;;6.75;;
81672;SDS011;71092;41.158;-8.680;2024-03-29T00:56:54;18.85;;;6.38;;
81672;SDS011;71092;41.158;-8.680;2024-03-29T01:01:46;20.63;;;6.20;;
81672;SDS011;71092;41.158;-8.680;2024-03-29T01:04:12;16.58;;;6.07;;
81672;SDS011;71092;41.158;-8.680;2024-03-29T01:09:04;17.35;;;5.85;;
81672;SDS011;71092;41.158;-8.680;2024-03-29T01:11:30;25.85;;;5.85;;
81672;SDS011;71092;41.158;-8.680;2024-03-29T01:16:22;15.15;;;4.63;;
81672;SDS011;71092;41.158;-8.680;2024-03-29T01:18:49;19.38;;;5.07;;
81672;SDS011;71092;41.158;-8.680;2024-03-29T01:21:15;21.33;;;6.50;;
81672;SDS011;71092;41.158;-8.680;2024-03-29T01:23:43;21.88;;;6.68;;
81672;SDS011;71092;41.158;-8.680;2024-03-29T01:26:09;20.73;;;5.63;;
81672;SDS011;71092;41.158;-8.680;2024-03-29T01:28:39;20.33;;;5.32;;
81672;SDS011;71092;41.158;-8.680;2024-03-29T01:33:31;21.27;;;5.97;;
81672;SDS011;71092;41.158;-8.680;2024-03-29T01:36:02;20.75;;;4.90;;
81672;SDS011;71092;41.158;-8.680;2024-03-29T01:38:28;16.42;;;5.25;;
81672;SDS011;71092;41.158;-8.680;2024-03-29T01:43:19;19.50;;;5.85;;
81672;SDS011;71092;41.158;-8.680;2024-03-29T01:45:47;21.70;;;5.85;;
81672;SDS011;71092;41.158;-8.680;2024-03-29T01:48:15;17.15;;;4.97;;
81672;SDS011;71092;41.158;-8.680;2024-03-29T01:50:42;22.20;;;5.60;;
81672;SDS011;71092;41.158;-8.680;2024-03-29T01:55:33;17.08;;;5.30;;
81672;SDS011;71092;41.158;-8.680;2024-03-29T01:58:00;20.05;;;5.30;;
81672;SDS011;71092;41.158;-8.680;2024-03-29T02:00:26;17.90;;;4.47;;
81672;SDS011;71092;41.158;-8.680;2024-03-29T02:02:54;20.70;;;6.18;;
81672;SDS011;71092;41.158;-8.680;2024-03-29T02:05:20;18.88;;;6.13;;
81672;SDS011;71092;41.158;-8.680;2024-03-29T02:10:14;25.63;;;6.32;;
81672;SDS011;71092;41.158;-8.680;2024-03-29T02:12:40;20.42;;;5.40;;
81672;SDS011;71092;41.158;-8.680;2024-03-29T02:15:06;18.63;;;5.97;;
81672;SDS011;71092;41.158;-8.680;2024-03-29T02:17:33;22.27;;;5.57;;
81672;SDS011;71092;41.158;-8.680;2024-03-29T02:22:24;20.80;;;5.05;;
81672;SDS011;71092;41.158;-8.680;2024-03-29T02:24:51;18.85;;;5.18;;
81672;SDS011;71092;41.158;-8.680;2024-03-29T02:27:17;23.63;;;5.20;;
81672;SDS011;71092;41.158;-8.680;2024-03-29T02:32:09;21.58;;;5.50;;
81672;SDS011;71092;41.158;-8.680;2024-03-29T02:37:01;16.08;;;5.65;;
81672;SDS011;71092;41.158;-8.680;2024-03-29T02:39:27;15.32;;;4.97;;
81672;SDS011;71092;41.158;-8.680;2024-03-29T02:44:19;18.85;;;5.15;;
81672;SDS011;71092;41.158;-8.680;2024-03-29T02:49:10;23.13;;;5.45;;
81672;SDS011;71092;41.158;-8.680;2024-03-29T02:51:36;15.80;;;5.28;;
81672;SDS011;71092;41.158;-8.680;2024-03-29T02:56:28;21.23;;;5.63;;
81672;SDS011;71092;41.158;-8.680;2024-03-29T02:58:54;15.45;;;5.45;;
81672;SDS011;71092;41.158;-8.680;2024-03-29T03:01:20;17.27;;;5.78;;
81672;SDS011;71092;41.158;-8.680;2024-03-29T03:06:12;16.83;;;4.88;;
81672;SDS011;71092;41.158;-8.680;2024-03-29T03:08:38;15.48;;;5.18;;
81672;SDS011;71092;41.158;-8.680;2024-03-29T03:11:22;15.93;;;4.68;;
81672;SDS011;71092;41.158;-8.680;2024-03-29T03:16:15;17.98;;;6.25;;
81672;SDS011;71092;41.158;-8.680;2024-03-29T03:21:06;15.70;;;5.35;;
81672;SDS011;71092;41.158;-8.680;2024-03-29T03:26:02;17.25;;;5.38;;
81672;SDS011;71092;41.158;-8.680;2024-03-29T03:28:29;15.35;;;4.95;;
81672;SDS011;71092;41.158;-8.680;2024-03-29T03:33:21;20.40;;;5.90;;
81672;SDS011;71092;41.158;-8.680;2024-03-29T03:35:47;20.10;;;5.07;;
81672;SDS011;71092;41.158;-8.680;2024-03-29T03:40:39;14.00;;;5.18;;
81672;SDS011;71092;41.158;-8.680;2024-03-29T03:43:05;22.65;;;4.95;;
81672;SDS011;71092;41.158;-8.680;2024-03-29T03:45:38;17.92;;;5.30;;
81672;SDS011;71092;41.158;-8.680;2024-03-29T03:48:05;20.80;;;5.03;;
81672;SDS011;71092;41.158;-8.680;2024-03-29T03:50:32;18.50;;;5.07;;
81672;SDS011;71092;41.158;-8.680;2024-03-29T03:55:24;20.75;;;5.70;;
81672;SDS011;71092;41.158;-8.680;2024-03-29T04:00:18;14.70;;;5.03;;
81672;SDS011;71092;41.158;-8.680;2024-03-29T04:02:48;14.55;;;5.22;;
81672;SDS011;71092;41.158;-8.680;2024-03-29T04:05:15;15.00;;;4.90;;
81672;SDS011;71092;41.158;-8.680;2024-03-29T04:07:42;19.60;;;4.80;;
81672;SDS011;71092;41.158;-8.680;2024-03-29T04:12:34;17.48;;;6.05;;
81672;SDS011;71092;41.158;-8.680;2024-03-29T04:17:26;22.83;;;5.53;;
81672;SDS011;71092;41.158;-8.680;2024-03-29T04:22:17;14.52;;;5.70;;
81672;SDS011;71092;41.158;-8.680;2024-03-29T04:27:09;20.80;;;5.03;;
81672;SDS011;71092;41.158;-8.680;2024-03-29T04:32:00;16.20;;;5.18;;
81672;SDS011;71092;41.158;-8.680;2024-03-29T04:34:26;15.45;;;4.95;;
81672;SDS011;71092;41.158;-8.680;2024-03-29T04:39:18;20.67;;;6.25;;
81672;SDS011;71092;41.158;-8.680;2024-03-29T04:44:11;20.08;;;6.10;;
81672;SDS011;71092;41.158;-8.680;2024-03-29T04:46:37;20.92;;;5.88;;
81672;SDS011;71092;41.158;-8.680;2024-03-29T04:51:29;23.92;;;6.18;;
81672;SDS011;71092;41.158;-8.680;2024-03-29T04:56:21;19.90;;;5.15;;
81672;SDS011;71092;41.158;-8.680;2024-03-29T05:01:12;18.42;;;5.00;;
81672;SDS011;71092;41.158;-8.680;2024-03-29T05:06:04;18.42;;;5.03;;
81672;SDS011;71092;41.158;-8.680;2024-03-29T05:08:30;31.50;;;6.18;;
81672;SDS011;71092;41.158;-8.680;2024-03-29T05:10:57;21.77;;;5.60;;
81672;SDS011;71092;41.158;-8.680;2024-03-29T05:15:48;26.48;;;5.95;;
81672;SDS011;71092;41.158;-8.680;2024-03-29T05:18:15;21.08;;;5.25;;
81672;SDS011;71092;41.158;-8.680;2024-03-29T05:23:12;21.58;;;5.45;;
81672;SDS011;71092;41.158;-8.680;2024-03-29T05:25:40;21.45;;;5.35;;
81672;SDS011;71092;41.158;-8.680;2024-03-29T05:28:06;19.55;;;5.03;;
81672;SDS011;71092;41.158;-8.680;2024-03-29T05:30:33;22.80;;;6.13;;
81672;SDS011;71092;41.158;-8.680;2024-03-29T05:33:00;23.15;;;6.63;;
81672;SDS011;71092;41.158;-8.680;2024-03-29T05:37:51;21.23;;;5.55;;
81672;SDS011;71092;41.158;-8.680;2024-03-29T05:40:19;25.02;;;5.85;;
81672;SDS011;71092;41.158;-8.680;2024-03-29T05:42:50;19.45;;;5.63;;
81672;SDS011;71092;41.158;-8.680;2024-03-29T05:45:26;22.38;;;5.57;;
81672;SDS011;71092;41.158;-8.680;2024-03-29T05:47:54;22.25;;;5.72;;
81672;SDS011;71092;41.158;-8.680;2024-03-29T05:50:20;22.60;;;5.00;;
81672;SDS011;71092;41.158;-8.680;2024-03-29T05:52:47;19.60;;;5.65;;
81672;SDS011;71092;41.158;-8.680;2024-03-29T05:57:39;22.02;;;5.32;;
81672;SDS011;71092;41.158;-8.680;2024-03-29T06:00:07;23.17;;;6.03;;
81672;SDS011;71092;41.158;-8.680;2024-03-29T06:02:36;20.15;;;5.75;;
81672;SDS011;71092;41.158;-8.680;2024-03-29T06:07:29;17.60;;;5.53;;
81672;SDS011;71092;41.158;-8.680;2024-03-29T06:09:56;18.30;;;5.18;;
81672;SDS011;71092;41.158;-8.680;2024-03-29T06:14:47;20.58;;;5.00;;
81672;SDS011;71092;41.158;-8.680;2024-03-29T06:17:32;20.88;;;5.85;;
81672;SDS011;71092;41.158;-8.680;2024-03-29T06:19:58;22.88;;;5.95;;
81672;SDS011;71092;41.158;-8.680;2024-03-29T06:22:28;20.67;;;5.20;;
81672;SDS011;71092;41.158;-8.680;2024-03-29T06:24:58;18.00;;;5.57;;
81672;SDS011;71092;41.158;-8.680;2024-03-29T06:27:25;20.27;;;5.45;;
81672;SDS011;71092;41.158;-8.680;2024-03-29T06:29:51;14.90;;;4.88;;
81672;SDS011;71092;41.158;-8.680;2024-03-29T06:34:47;14.73;;;3.85;;
81672;SDS011;71092;41.158;-8.680;2024-03-29T06:37:13;15.13;;;5.05;;
81672;SDS011;71092;41.158;-8.680;2024-03-29T06:39:39;22.98;;;5.13;;
81672;SDS011;71092;41.158;-8.680;2024-03-29T06:44:34;16.38;;;4.78;;
81672;SDS011;71092;41.158;-8.680;2024-03-29T06:47:00;15.70;;;4.45;;
81672;SDS011;71092;41.158;-8.680;2024-03-29T06:51:52;16.50;;;5.13;;
81672;SDS011;71092;41.158;-8.680;2024-03-29T06:54:19;20.88;;;4.60;;
81672;SDS011;71092;41.158;-8.680;2024-03-29T06:56:52;16.02;;;4.57;;
81672;SDS011;71092;41.158;-8.680;2024-03-29T06:59:18;15.85;;;5.30;;
81672;SDS011;71092;41.158;-8.680;2024-03-29T07:01:44;17.63;;;4.72;;
81672;SDS011;71092;41.158;-8.680;2024-03-29T07:04:13;19.45;;;4.80;;
81672;SDS011;71092;41.158;-8.680;2024-03-29T07:06:39;16.52;;;4.00;;
81672;SDS011;71092;41.158;-8.680;2024-03-29T07:09:08;21.63;;;5.78;;
81672;SDS011;71092;41.158;-8.680;2024-03-29T07:11:35;15.27;;;4.47;;
81672;SDS011;71092;41.158;-8.680;2024-03-29T07:14:01;17.38;;;4.88;;
81672;SDS011;71092;41.158;-8.680;2024-03-29T07:18:53;13.32;;;4.07;;
81672;SDS011;71092;41.158;-8.680;2024-03-29T07:21:19;15.73;;;5.72;;
81672;SDS011;71092;41.158;-8.680;2024-03-29T07:26:11;16.73;;;4.38;;
81672;SDS011;71092;41.158;-8.680;2024-03-29T07:31:06;24.15;;;4.75;;
81672;SDS011;71092;41.158;-8.680;2024-03-29T07:33:32;15.73;;;4.72;;
81672;SDS011;71092;41.158;-8.680;2024-03-29T07:38:24;16.77;;;4.75;;
81672;SDS011;71092;41.158;-8.680;2024-03-29T07:43:16;16.75;;;5.05;;
81672;SDS011;71092;41.158;-8.680;2024-03-29T07:45:43;12.60;;;4.32;;
81672;SDS011;71092;41.158;-8.680;2024-03-29T07:48:11;10.40;;;4.55;;
81672;SDS011;71092;41.158;-8.680;2024-03-29T07:50:42;13.90;;;4.40;;
81672;SDS011;71092;41.158;-8.680;2024-03-29T07:53:08;17.10;;;4.88;;
81672;SDS011;71092;41.158;-8.680;2024-03-29T07:55:35;16.83;;;4.75;;
81672;SDS011;71092;41.158;-8.680;2024-03-29T07:58:02;18.15;;;4.47;;
81672;SDS011;71092;41.158;-8.680;2024-03-29T08:00:33;16.55;;;4.70;;
81672;SDS011;71092;41.158;-8.680;2024-03-29T08:03:00;13.25;;;4.38;;
81672;SDS011;71092;41.158;-8.680;2024-03-29T08:05:26;17.30;;;5.43;;
81672;SDS011;71092;41.158;-8.680;2024-03-29T08:07:53;18.55;;;5.38;;
81672;SDS011;71092;41.158;-8.680;2024-03-29T08:10:20;18.83;;;5.30;;
81672;SDS011;71092;41.158;-8.680;2024-03-29T08:12:46;13.18;;;3.97;;
81672;SDS011;71092;41.158;-8.680;2024-03-29T08:15:12;14.55;;;4.05;;
81672;SDS011;71092;41.158;-8.680;2024-03-29T08:20:04;13.82;;;4.70;;
81672;SDS011;71092;41.158;-8.680;2024-03-29T08:22:30;17.23;;;4.20;;
81672;SDS011;71092;41.158;-8.680;2024-03-29T08:24:59;14.02;;;4.10;;
81672;SDS011;71092;41.158;-8.680;2024-03-29T08:27:26;12.93;;;3.72;;
81672;SDS011;71092;41.158;-8.680;2024-03-29T08:29:53;15.63;;;4.90;;
81672;SDS011;71092;41.158;-8.680;2024-03-29T08:32:19;13.75;;;4.32;;
81672;SDS011;71092;41.158;-8.680;2024-03-29T08:37:10;12.20;;;3.53;;
81672;SDS011;71092;41.158;-8.680;2024-03-29T08:42:03;14.50;;;3.13;;
81672;SDS011;71092;41.158;-8.680;2024-03-29T08:44:35;15.05;;;4.70;;
81672;SDS011;71092;41.158;-8.680;2024-03-29T08:49:28;16.80;;;4.32;;
81672;SDS011;71092;41.158;-8.680;2024-03-29T08:51:55;13.95;;;3.80;;
81672;SDS011;71092;41.158;-8.680;2024-03-29T08:54:22;15.95;;;3.97;;
81672;SDS011;71092;41.158;-8.680;2024-03-29T08:59:14;16.88;;;4.78;;
81672;SDS011;71092;41.158;-8.680;2024-03-29T09:01:42;16.30;;;4.25;;
81672;SDS011;71092;41.158;-8.680;2024-03-29T09:04:09;13.63;;;4.25;;
81672;SDS011;71092;41.158;-8.680;2024-03-29T09:06:37;13.43;;;3.78;;
81672;SDS011;71092;41.158;-8.680;2024-03-29T09:09:06;17.05;;;4.35;;
81672;SDS011;71092;41.158;-8.680;2024-03-29T09:11:32;18.65;;;4.63;;
81672;SDS011;71092;41.158;-8.680;2024-03-29T09:13:58;13.80;;;4.00;;
81672;SDS011;71092;41.158;-8.680;2024-03-29T09:18:56;12.93;;;3.50;;
81672;SDS011;71092;41.158;-8.680;2024-03-29T09:21:21;17.55;;;4.53;;
81672;SDS011;71092;41.158;-8.680;2024-03-29T09:23:48;13.77;;;4.07;;
81672;SDS011;71092;41.158;-8.680;2024-03-29T09:26:18;17.05;;;5.10;;
81672;SDS011;71092;41.158;-8.680;2024-03-29T09:28:44;16.38;;;4.53;;
81672;SDS011;71092;41.158;-8.680;2024-03-29T09:31:10;15.60;;;4.40;;
81672;SDS011;71092;41.158;-8.680;2024-03-29T09:36:02;18.23;;;5.00;;
81672;SDS011;71092;41.158;-8.680;2024-03-29T09:38:28;20.35;;;5.68;;
81672;SDS011;71092;41.158;-8.680;2024-03-29T09:41:07;16.02;;;4.82;;
81672;SDS011;71092;41.158;-8.680;2024-03-29T09:43:37;14.90;;;4.43;;
81672;SDS011;71092;41.158;-8.680;2024-03-29T09:46:04;18.60;;;5.63;;
81672;SDS011;71092;41.158;-8.680;2024-03-29T09:48:31;15.02;;;4.53;;
81672;SDS011;71092;41.158;-8.680;2024-03-29T09:51:03;19.25;;;5.40;;
81672;SDS011;71092;41.158;-8.680;2024-03-29T09:53:36;19.25;;;5.32;;
81672;SDS011;71092;41.158;-8.680;2024-03-29T09:56:03;16.40;;;4.25;;
81672;SDS011;71092;41.158;-8.680;2024-03-29T09:58:31;17.85;;;4.78;;
81672;SDS011;71092;41.158;-8.680;2024-03-29T10:01:00;11.10;;;4.57;;
81672;SDS011;71092;41.158;-8.680;2024-03-29T10:03:29;16.80;;;5.00;;
81672;SDS011;71092;41.158;-8.680;2024-03-29T10:05:59;14.38;;;4.25;;
81672;SDS011;71092;41.158;-8.680;2024-03-29T10:08:29;19.30;;;4.65;;
81672;SDS011;71092;41.158;-8.680;2024-03-29T10:10:56;14.55;;;4.55;;
81672;SDS011;71092;41.158;-8.680;2024-03-29T10:13:22;14.32;;;4.35;;
81672;SDS011;71092;41.158;-8.680;2024-03-29T10:15:49;17.48;;;5.10;;
81672;SDS011;71092;41.158;-8.680;2024-03-29T10:18:17;15.50;;;4.57;;
81672;SDS011;71092;41.158;-8.680;2024-03-29T10:20:45;16.83;;;4.97;;
81672;SDS011;71092;41.158;-8.680;2024-03-29T10:23:11;24.20;;;4.85;;
81672;SDS011;71092;41.158;-8.680;2024-03-29T10:25:38;15.43;;;5.38;;
81672;SDS011;71092;41.158;-8.680;2024-03-29T10:28:04;19.27;;;4.90;;
81672;SDS011;71092;41.158;-8.680;2024-03-29T10:30:30;20.33;;;4.57;;
81672;SDS011;71092;41.158;-8.680;2024-03-29T10:32:56;17.92;;;4.78;;
81672;SDS011;71092;41.158;-8.680;2024-03-29T10:35:22;19.65;;;4.95;;
81672;SDS011;71092;41.158;-8.680;2024-03-29T10:37:54;14.50;;;4.47;;
81672;SDS011;71092;41.158;-8.680;2024-03-29T10:40:20;13.48;;;4.63;;
81672;SDS011;71092;41.158;-8.680;2024-03-29T10:42:47;20.17;;;4.85;;
81672;SDS011;71092;41.158;-8.680;2024-03-29T10:45:14;16.67;;;4.40;;
81672;SDS011;71092;41.158;-8.680;2024-03-29T10:47:42;17.67;;;4.55;;
81672;SDS011;71092;41.158;-8.680;2024-03-29T10:50:12;20.55;;;5.72;;
81672;SDS011;71092;41.158;-8.680;2024-03-29T10:52:41;24.38;;;7.25;;
81672;SDS011;71092;41.158;-8.680;2024-03-29T10:55:11;16.02;;;5.32;;
81672;SDS011;71092;41.158;-8.680;2024-03-29T10:57:41;18.45;;;6.32;;
81672;SDS011;71092;41.158;-8.680;2024-03-29T11:00:08;19.77;;;5.63;;
81672;SDS011;71092;41.158;-8.680;2024-03-29T11:05:12;19.10;;;5.50;;
81672;SDS011;71092;41.158;-8.680;2024-03-29T11:07:40;23.45;;;6.07;;
81672;SDS011;71092;41.158;-8.680;2024-03-29T11:10:13;23.63;;;5.40;;
81672;SDS011;71092;41.158;-8.680;2024-03-29T11:13:01;23.15;;;6.00;;
81672;SDS011;71092;41.158;-8.680;2024-03-29T11:15:31;30.05;;;6.45;;
81672;SDS011;71092;41.158;-8.680;2024-03-29T11:18:00;18.33;;;5.38;;
81672;SDS011;71092;41.158;-8.680;2024-03-29T11:20:27;19.38;;;5.75;;
81672;SDS011;71092;41.158;-8.680;2024-03-29T11:23:08;17.00;;;5.25;;
81672;SDS011;71092;41.158;-8.680;2024-03-29T11:25:42;16.95;;;4.53;;
81672;SDS011;71092;41.158;-8.680;2024-03-29T11:28:27;22.58;;;5.72;;
81672;SDS011;71092;41.158;-8.680;2024-03-29T11:31:00;21.20;;;6.43;;
81672;SDS011;71092;41.158;-8.680;2024-03-29T11:33:32;29.75;;;6.28;;
81672;SDS011;71092;41.158;-8.680;2024-03-29T11:36:16;22.73;;;5.15;;
81672;SDS011;71092;41.158;-8.680;2024-03-29T11:38:50;22.10;;;6.65;;
81672;SDS011;71092;41.158;-8.680;2024-03-29T11:41:18;20.23;;;6.22;;
81672;SDS011;71092;41.158;-8.680;2024-03-29T11:43:55;20.13;;;5.60;;
81672;SDS011;71092;41.158;-8.680;2024-03-29T11:46:22;24.95;;;6.15;;
81672;SDS011;71092;41.158;-8.680;2024-03-29T11:48:49;19.10;;;5.50;;
81672;SDS011;71092;41.158;-8.680;2024-03-29T11:51:17;22.73;;;6.10;;
81672;SDS011;71092;41.158;-8.680;2024-03-29T11:53:49;24.40;;;6.15;;
81672;SDS011;71092;41.158;-8.680;2024-03-29T11:56:18;18.77;;;4.97;;
81672;SDS011;71092;41.158;-8.680;2024-03-29T11:58:45;23.55;;;6.10;;
81672;SDS011;71092;41.158;-8.680;2024-03-29T12:01:12;24.67;;;6.60;;
81672;SDS011;71092;41.158;-8.680;2024-03-29T12:03:40;20.35;;;5.90;;
81672;SDS011;71092;41.158;-8.680;2024-03-29T12:06:07;23.95;;;6.63;;
81672;SDS011;71092;41.158;-8.680;2024-03-29T12:08:40;22.70;;;6.43;;
81672;SDS011;71092;41.158;-8.680;2024-03-29T12:11:08;24.48;;;6.53;;
81672;SDS011;71092;41.158;-8.680;2024-03-29T12:13:34;24.67;;;6.28;;
81672;SDS011;71092;41.158;-8.680;2024-03-29T12:16:00;28.38;;;6.90;;
81672;SDS011;71092;41.158;-8.680;2024-03-29T12:18:27;28.38;;;6.95;;
81672;SDS011;71092;41.158;-8.680;2024-03-29T12:20:59;25.35;;;5.78;;
81672;SDS011;71092;41.158;-8.680;2024-03-29T12:23:25;25.35;;;6.57;;
81672;SDS011;71092;41.158;-8.680;2024-03-29T12:25:53;31.05;;;7.93;;
81672;SDS011;71092;41.158;-8.680;2024-03-29T12:28:23;27.95;;;6.72;;
81672;SDS011;71092;41.158;-8.680;2024-03-29T12:30:50;27.48;;;6.82;;
81672;SDS011;71092;41.158;-8.680;2024-03-29T12:33:17;27.10;;;7.10;;
81672;SDS011;71092;41.158;-8.680;2024-03-29T12:35:45;23.98;;;6.40;;
81672;SDS011;71092;41.158;-8.680;2024-03-29T12:38:15;26.77;;;7.97;;
81672;SDS011;71092;41.158;-8.680;2024-03-29T12:40:43;25.08;;;6.63;;
81672;SDS011;71092;41.158;-8.680;2024-03-29T12:43:10;26.45;;;6.40;;
81672;SDS011;71092;41.158;-8.680;2024-03-29T12:45:40;24.98;;;6.72;;
81672;SDS011;71092;41.158;-8.680;2024-03-29T12:48:10;21.92;;;6.15;;
81672;SDS011;71092;41.158;-8.680;2024-03-29T12:50:39;21.13;;;6.75;;
81672;SDS011;71092;41.158;-8.680;2024-03-29T12:53:06;24.45;;;7.13;;
81672;SDS011;71092;41.158;-8.680;2024-03-29T12:55:33;26.80;;;7.22;;
81672;SDS011;71092;41.158;-8.680;2024-03-29T12:58:04;24.45;;;7.18;;
81672;SDS011;71092;41.158;-8.680;2024-03-29T13:00:39;26.33;;;6.70;;
81672;SDS011;71092;41.158;-8.680;2024-03-29T13:03:06;24.27;;;5.82;;
81672;SDS011;71092;41.158;-8.680;2024-03-29T13:05:33;21.55;;;5.70;;
81672;SDS011;71092;41.158;-8.680;2024-03-29T13:08:01;22.73;;;5.10;;
81672;SDS011;71092;41.158;-8.680;2024-03-29T13:10:29;21.02;;;5.72;;
81672;SDS011;71092;41.158;-8.680;2024-03-29T13:12:56;24.77;;;5.68;;
81672;SDS011;71092;41.158;-8.680;2024-03-29T13:15:22;28.95;;;7.07;;
81672;SDS011;71092;41.158;-8.680;2024-03-29T13:17:51;19.80;;;5.35;;
81672;SDS011;71092;41.158;-8.680;2024-03-29T13:20:18;26.08;;;6.82;;
81672;SDS011;71092;41.158;-8.680;2024-03-29T13:22:45;21.77;;;6.47;;
81672;SDS011;71092;41.158;-8.680;2024-03-29T13:25:13;23.98;;;6.43;;
81672;SDS011;71092;41.158;-8.680;2024-03-29T13:27:39;24.83;;;6.10;;
81672;SDS011;71092;41.158;-8.680;2024-03-29T13:30:07;21.77;;;7.10;;
81672;SDS011;71092;41.158;-8.680;2024-03-29T13:32:39;25.42;;;7.32;;
81672;SDS011;71092;41.158;-8.680;2024-03-29T13:35:06;23.80;;;6.65;;
81672;SDS011;71092;41.158;-8.680;2024-03-29T13:37:36;23.48;;;5.57;;
81672;SDS011;71092;41.158;-8.680;2024-03-29T13:40:06;25.08;;;6.80;;
81672;SDS011;71092;41.158;-8.680;2024-03-29T13:42:33;23.80;;;5.78;;
81672;SDS011;71092;41.158;-8.680;2024-03-29T13:44:59;18.25;;;6.25;;
81672;SDS011;71092;41.158;-8.680;2024-03-29T13:47:25;25.38;;;5.85;;
81672;SDS011;71092;41.158;-8.680;2024-03-29T13:49:51;22.05;;;5.45;;
81672;SDS011;71092;41.158;-8.680;2024-03-29T13:52:18;20.83;;;5.20;;
81672;SDS011;71092;41.158;-8.680;2024-03-29T13:54:45;19.77;;;6.82;;
81672;SDS011;71092;41.158;-8.680;2024-03-29T13:57:15;25.38;;;6.35;;
81672;SDS011;71092;41.158;-8.680;2024-03-29T13:59:43;17.30;;;6.13;;
81672;SDS011;71092;41.158;-8.680;2024-03-29T14:02:11;19.50;;;5.88;;
81672;SDS011;71092;41.158;-8.680;2024-03-29T14:04:39;25.77;;;6.53;;
81672;SDS011;71092;41.158;-8.680;2024-03-29T14:07:05;22.02;;;6.07;;
81672;SDS011;71092;41.158;-8.680;2024-03-29T14:09:36;25.90;;;6.20;;
81672;SDS011;71092;41.158;-8.680;2024-03-29T14:12:03;17.20;;;5.65;;
81672;SDS011;71092;41.158;-8.680;2024-03-29T14:14:30;21.58;;;6.07;;
81672;SDS011;71092;41.158;-8.680;2024-03-29T14:16:56;20.00;;;6.00;;
81672;SDS011;71092;41.158;-8.680;2024-03-29T14:19:22;21.08;;;5.90;;
81672;SDS011;71092;41.158;-8.680;2024-03-29T14:21:49;22.50;;;5.80;;
81672;SDS011;71092;41.158;-8.680;2024-03-29T14:24:15;21.90;;;6.05;;
81672;SDS011;71092;41.158;-8.680;2024-03-29T14:26:44;20.35;;;5.60;;
81672;SDS011;71092;41.158;-8.680;2024-03-29T14:29:10;24.02;;;5.85;;
81672;SDS011;71092;41.158;-8.680;2024-03-29T14:31:41;25.02;;;6.35;;
81672;SDS011;71092;41.158;-8.680;2024-03-29T14:34:10;25.15;;;6.78;;
81672;SDS011;71092;41.158;-8.680;2024-03-29T14:36:36;23.27;;;7.20;;
81672;SDS011;71092;41.158;-8.680;2024-03-29T14:39:02;21.35;;;5.97;;
81672;SDS011;71092;41.158;-8.680;2024-03-29T14:41:28;19.42;;;5.35;;
81672;SDS011;71092;41.158;-8.680;2024-03-29T14:43:55;27.85;;;6.50;;
81672;SDS011;71092;41.158;-8.680;2024-03-29T14:46:22;21.90;;;6.03;;
81672;SDS011;71092;41.158;-8.680;2024-03-29T14:48:51;22.88;;;6.28;;
81672;SDS011;71092;41.158;-8.680;2024-03-29T14:51:17;19.75;;;5.72;;
81672;SDS011;71092;41.158;-8.680;2024-03-29T14:53:44;21.60;;;4.93;;
81672;SDS011;71092;41.158;-8.680;2024-03-29T14:56:18;18.83;;;4.78;;
81672;SDS011;71092;41.158;-8.680;2024-03-29T14:58:43;14.68;;;4.80;;
81672;SDS011;71092;41.158;-8.680;2024-03-29T15:01:10;20.08;;;5.75;;
81672;SDS011;71092;41.158;-8.680;2024-03-29T15:03:36;17.63;;;4.88;;
81672;SDS011;71092;41.158;-8.680;2024-03-29T15:06:02;16.05;;;4.80;;
81672;SDS011;71092;41.158;-8.680;2024-03-29T15:08:28;15.65;;;4.43;;
81672;SDS011;71092;41.158;-8.680;2024-03-29T15:15:57;17.60;;;5.07;;
81672;SDS011;71092;41.158;-8.680;2024-03-29T15:18:28;19.73;;;5.50;;
81672;SDS011;71092;41.158;-8.680;2024-03-29T15:20:55;19.48;;;6.40;;
81672;SDS011;71092;41.158;-8.680;2024-03-29T15:23:21;22.10;;;5.13;;
81672;SDS011;71092;41.158;-8.680;2024-03-29T15:25:50;19.05;;;5.43;;
81672;SDS011;71092;41.158;-8.680;2024-03-29T15:28:17;24.92;;;6.45;;
81672;SDS011;71092;41.158;-8.680;2024-03-29T15:31:12;23.50;;;5.38;;
81672;SDS011;71092;41.158;-8.680;2024-03-29T15:33:46;16.85;;;5.32;;
81672;SDS011;71092;41.158;-8.680;2024-03-29T15:36:13;14.50;;;4.43;;
81672;SDS011;71092;41.158;-8.680;2024-03-29T15:38:39;21.17;;;5.22;;
81672;SDS011;71092;41.158;-8.680;2024-03-29T15:41:05;20.20;;;5.45;;
81672;SDS011;71092;41.158;-8.680;2024-03-29T15:43:32;17.45;;;5.28;;
81672;SDS011;71092;41.158;-8.680;2024-03-29T15:45:58;20.02;;;6.03;;
81672;SDS011;71092;41.158;-8.680;2024-03-29T15:48:24;21.25;;;5.00;;
81672;SDS011;71092;41.158;-8.680;2024-03-29T15:50:50;17.00;;;4.35;;
81672;SDS011;71092;41.158;-8.680;2024-03-29T15:53:17;22.98;;;5.82;;
81672;SDS011;71092;41.158;-8.680;2024-03-29T15:55:43;22.23;;;5.00;;
81672;SDS011;71092;41.158;-8.680;2024-03-29T15:58:10;19.38;;;5.40;;
81672;SDS011;71092;41.158;-8.680;2024-03-29T16:00:36;18.52;;;4.68;;
81672;SDS011;71092;41.158;-8.680;2024-03-29T16:03:12;15.93;;;4.82;;
81672;SDS011;71092;41.158;-8.680;2024-03-29T16:05:45;19.15;;;5.20;;
81672;SDS011;71092;41.158;-8.680;2024-03-29T16:08:12;17.95;;;5.25;;
81672;SDS011;71092;41.158;-8.680;2024-03-29T16:13:20;18.20;;;5.85;;
81672;SDS011;71092;41.158;-8.680;2024-03-29T16:15:48;13.40;;;4.18;;
81672;SDS011;71092;41.158;-8.680;2024-03-29T16:18:17;12.57;;;4.47;;
81672;SDS011;71092;41.158;-8.680;2024-03-29T16:20:43;16.30;;;4.30;;
81672;SDS011;71092;41.158;-8.680;2024-03-29T16:23:11;12.23;;;4.32;;
81672;SDS011;71092;41.158;-8.680;2024-03-29T16:25:43;19.13;;;4.22;;
81672;SDS011;71092;41.158;-8.680;2024-03-29T16:28:12;16.88;;;4.10;;
81672;SDS011;71092;41.158;-8.680;2024-03-29T16:30:40;16.85;;;4.38;;
81672;SDS011;71092;41.158;-8.680;2024-03-29T16:33:07;17.13;;;4.90;;
81672;SDS011;71092;41.158;-8.680;2024-03-29T16:35:34;12.13;;;4.72;;
81672;SDS011;71092;41.158;-8.680;2024-03-29T16:38:00;16.48;;;4.28;;
81672;SDS011;71092;41.158;-8.680;2024-03-29T16:40:27;16.95;;;3.63;;
81672;SDS011;71092;41.158;-8.680;2024-03-29T16:42:53;19.67;;;4.57;;
81672;SDS011;71092;41.158;-8.680;2024-03-29T16:45:19;13.73;;;5.15;;
81672;SDS011;71092;41.158;-8.680;2024-03-29T16:47:45;16.13;;;4.70;;
81672;SDS011;71092;41.158;-8.680;2024-03-29T16:50:11;16.95;;;4.38;;